createdAt,value
2023-04-19T00:02:21.608Z,96070.86
2023-04-19T00:04:53.713Z,96074.55
2023-04-19T00:07:24.523Z,96069.85
2023-04-19T00:09:54.664Z,96066.38
2023-04-19T00:12:25.614Z,96061.74
2023-04-19T00:14:58.046Z,96061.05
2023-04-19T00:17:27.880Z,96061.36
2023-04-19T00:19:59.550Z,96059.33
2023-04-19T00:22:30.034Z,96058.92
2023-04-19T00:25:01.587Z,96055.45
2023-04-19T00:27:32.195Z,96060.17
2023-04-19T00:30:03.278Z,96054.95
2023-04-19T00:32:34.527Z,96053.64
2023-04-19T00:35:05.379Z,96055.17
2023-04-19T00:37:35.322Z,96059.94
2023-04-19T00:40:06.475Z,96055.34
2023-04-19T00:42:37.164Z,96053.64
2023-04-19T00:45:09.690Z,96046.05
2023-04-19T00:47:40.761Z,96048.38
2023-04-19T00:50:13.790Z,96046.27
2023-04-19T00:52:45.502Z,96044.41
2023-04-19T00:55:16.682Z,96046.42
2023-04-19T00:57:48.003Z,96041.86
2023-04-19T01:00:20.835Z,96041.37
2023-04-19T01:02:52.027Z,96039.28
2023-04-19T01:05:23.085Z,96038.60
2023-04-19T01:07:54.218Z,96034.26
2023-04-19T01:10:25.548Z,96039.32
2023-04-19T01:12:57.031Z,96037.08
2023-04-19T01:15:27.610Z,96038.08
2023-04-19T01:17:59.811Z,96037.48
2023-04-19T01:20:32.099Z,96038.52
2023-04-19T01:23:02.922Z,96034.58
2023-04-19T01:25:34.007Z,96031.71
2023-04-19T01:28:05.012Z,96030.25
2023-04-19T01:30:36.414Z,96028.16
2023-04-19T01:33:06.916Z,96029.74
2023-04-19T01:35:37.469Z,96025.26
2023-04-19T01:38:08.199Z,96023.95
2023-04-19T01:40:38.408Z,96023.15
2023-04-19T01:43:09.515Z,96022.07
2023-04-19T01:45:40.147Z,96022.89
2023-04-19T01:48:11.269Z,96024.59
2023-04-19T01:50:42.550Z,96019.77
2023-04-19T01:53:14.529Z,96018.08
2023-04-19T01:55:45.068Z,96015.94
2023-04-19T01:58:15.308Z,96019.00
2023-04-19T02:00:45.770Z,96013.52
2023-04-19T02:03:16.784Z,96012.13
2023-04-19T02:05:47.906Z,96011.59
2023-04-19T02:08:18.810Z,96011.04
2023-04-19T02:10:49.336Z,96013.21
2023-04-19T02:13:21.483Z,96007.58
2023-04-19T02:15:51.865Z,96007.23
2023-04-19T02:18:23.151Z,96006.84
2023-04-19T02:20:53.870Z,96005.63
2023-04-19T02:23:24.621Z,96007.42
2023-04-19T02:25:55.813Z,96004.10
2023-04-19T02:28:26.694Z,96004.04
2023-04-19T02:30:57.018Z,96002.09
2023-04-19T02:33:30.656Z,96001.41
2023-04-19T02:36:04.336Z,95999.30
2023-04-19T02:38:35.286Z,95999.95
2023-04-19T02:41:06.867Z,95999.79
2023-04-19T02:43:36.325Z,95996.95
2023-04-19T02:46:08.040Z,95996.20
2023-04-19T02:48:39.368Z,95994.23
2023-04-19T02:51:09.497Z,95992.41
2023-04-19T02:53:40.586Z,95989.02
2023-04-19T02:56:11.013Z,95984.17
2023-04-19T02:58:41.531Z,95984.36
2023-04-19T03:01:12.290Z,95981.98
2023-04-19T03:03:42.985Z,95977.78
2023-04-19T03:06:13.735Z,95985.89
2023-04-19T03:08:44.856Z,95981.94
2023-04-19T03:11:19.014Z,95980.54
2023-04-19T03:13:51.673Z,95976.02
2023-04-19T03:16:22.832Z,95976.84
2023-04-19T03:18:53.862Z,95974.28
2023-04-19T03:21:27.970Z,95976.43
2023-04-19T03:23:59.894Z,95976.75
2023-04-19T03:26:31.223Z,95975.70
2023-04-19T03:29:02.186Z,95972.10
2023-04-19T03:31:41.325Z,95969.91
2023-04-19T03:34:14.469Z,95970.98
2023-04-19T03:36:47.621Z,95968.80
2023-04-19T03:39:18.070Z,95969.48
2023-04-19T03:41:50.922Z,95971.16
2023-04-19T03:44:53.374Z,95965.39
2023-04-19T03:47:24.444Z,95957.89
2023-04-19T03:49:55.897Z,95963.48
2023-04-19T03:52:26.893Z,95961.66
2023-04-19T03:54:57.595Z,95964.94
2023-04-19T03:57:46.759Z,95963.09
2023-04-19T04:00:24.722Z,95966.34
2023-04-19T04:02:57.961Z,95961.86
2023-04-19T04:05:29.288Z,95966.95
2023-04-19T04:07:59.652Z,95961.31
2023-04-19T04:10:29.891Z,95965.08
2023-04-19T04:13:01.788Z,95964.77
2023-04-19T04:15:40.284Z,95966.97
2023-04-19T04:18:10.498Z,95966.25
2023-04-19T04:20:41.673Z,95966.66
2023-04-19T04:23:13.053Z,95966.03
2023-04-19T04:25:46.634Z,95967.60
2023-04-19T04:28:16.368Z,95966.44
2023-04-19T04:30:47.651Z,95965.91
2023-04-19T04:33:18.649Z,95963.23
2023-04-19T04:35:48.908Z,95960.61
2023-04-19T04:38:25.060Z,95955.06
2023-04-19T04:40:57.268Z,95950.83
2023-04-19T04:43:29.935Z,95951.20
2023-04-19T04:46:01.510Z,95946.54
2023-04-19T04:48:35.433Z,95945.31
2023-04-19T04:51:07.681Z,95944.17
2023-04-19T04:53:37.524Z,95947.06
2023-04-19T04:56:07.291Z,95943.86
2023-04-19T04:58:39.806Z,95944.33
2023-04-19T05:01:12.621Z,95948.33
2023-04-19T05:03:43.412Z,95948.59
2023-04-19T05:06:16.504Z,95944.98
2023-04-19T05:08:46.281Z,95944.67
2023-04-19T05:11:24.453Z,95942.02
2023-04-19T05:13:54.764Z,95945.95
2023-04-19T05:16:26.317Z,95945.73
2023-04-19T05:18:57.039Z,95946.04
2023-04-19T05:21:27.611Z,95950.12
2023-04-19T05:23:57.941Z,95949.11
2023-04-19T05:26:28.063Z,95951.09
2023-04-19T05:28:58.407Z,95948.64
2023-04-19T05:31:50.274Z,95950.80
2023-04-19T05:34:37.388Z,95946.98
2023-04-19T05:37:07.710Z,95951.77
2023-04-19T05:39:37.671Z,95946.70
2023-04-19T05:42:07.263Z,95947.44
2023-04-19T05:44:37.874Z,95944.48
2023-04-19T05:47:07.993Z,95946.80
2023-04-19T05:49:59.889Z,95947.05
2023-04-19T05:52:45.015Z,95946.13
2023-04-19T05:55:14.609Z,95947.86
2023-04-19T05:57:47.294Z,95945.50
2023-04-19T06:00:17.816Z,95950.45
2023-04-19T06:02:53.845Z,95944.67
2023-04-19T06:05:24.724Z,95944.69
2023-04-19T06:08:02.587Z,95937.23
2023-04-19T06:10:41.185Z,95936.95
2023-04-19T06:13:22.283Z,95937.65
2023-04-19T06:15:53.196Z,95937.21
2023-04-19T06:18:23.286Z,95937.90
2023-04-19T06:20:54.369Z,95936.63
2023-04-19T06:23:23.996Z,95935.23
2023-04-19T06:25:55.261Z,95935.95
2023-04-19T06:28:25.548Z,95934.06
2023-04-19T06:30:54.740Z,95935.39
2023-04-19T06:33:25.128Z,95936.56
2023-04-19T06:35:55.574Z,95935.83
2023-04-19T06:38:25.142Z,95935.45
2023-04-19T06:40:55.434Z,95935.48
2023-04-19T06:43:26.296Z,95934.75
2023-04-19T06:46:05.031Z,95933.84
2023-04-19T06:48:36.020Z,95929.94
2023-04-19T06:51:05.118Z,95927.24
2023-04-19T06:53:36.255Z,95933.55
2023-04-19T06:56:06.630Z,95928.55
2023-04-19T06:58:36.248Z,95930.48
2023-04-19T07:01:05.711Z,95931.16
2023-04-19T07:03:35.755Z,95934.48
2023-04-19T07:06:06.661Z,95931.52
2023-04-19T07:08:48.685Z,95930.13
2023-04-19T07:11:21.152Z,95935.70
2023-04-19T07:13:52.767Z,95935.58
2023-04-19T07:16:23.679Z,95939.15
2023-04-19T07:18:54.143Z,95941.50
2023-04-19T07:21:25.632Z,95941.14
2023-04-19T07:23:55.994Z,95944.05
2023-04-19T07:26:26.287Z,95943.99
2023-04-19T07:28:57.377Z,95945.11
2023-04-19T07:31:28.182Z,95940.63
2023-04-19T07:33:58.569Z,95948.67
2023-04-19T07:36:29.262Z,95947.23
2023-04-19T07:38:59.245Z,95947.68
2023-04-19T07:41:28.130Z,95947.79
2023-04-19T07:43:58.428Z,95945.77
2023-04-19T07:46:28.814Z,95954.38
2023-04-19T07:48:59.186Z,95944.13
2023-04-19T07:51:29.557Z,95947.02
2023-04-19T07:53:59.503Z,95944.02
2023-04-19T07:56:29.965Z,95943.04
2023-04-19T07:59:08.252Z,95940.61
2023-04-19T08:01:38.461Z,95936.42
2023-04-19T08:04:09.305Z,95935.48
2023-04-19T08:06:42.067Z,95934.99
2023-04-19T08:09:11.719Z,95937.83
2023-04-19T08:11:42.715Z,95932.36
2023-04-19T08:14:22.293Z,95932.23
2023-04-19T08:19:34.406Z,95929.98
2023-04-19T08:22:05.221Z,95925.92
2023-04-19T08:24:35.104Z,95919.27
2023-04-19T08:27:04.689Z,95918.77
2023-04-19T08:29:34.733Z,95914.02
2023-04-19T08:32:05.634Z,95914.70
2023-04-19T08:34:40.209Z,95909.15
2023-04-19T08:37:10.037Z,95908.02
2023-04-19T08:39:39.955Z,95907.35
2023-04-19T08:42:24.604Z,95905.04
2023-04-19T08:45:26.336Z,95901.77
2023-04-19T08:48:01.295Z,95898.31
2023-04-19T08:50:38.811Z,95898.50
2023-04-19T08:53:25.327Z,95895.27
2023-04-19T09:01:07.242Z,95900.54
2023-04-19T09:04:07.112Z,95895.27
2023-04-19T09:06:45.388Z,95895.13
2023-04-19T09:12:03.905Z,95894.69
2023-04-19T09:14:33.859Z,95896.88
2023-04-19T09:17:17.201Z,95890.59
2023-04-19T09:19:50.531Z,95893.30
2023-04-19T09:22:19.508Z,95893.73
2023-04-19T09:27:31.488Z,95887.75
2023-04-19T09:30:05.379Z,95888.23
2023-04-19T09:32:49.594Z,95884.34
2023-04-19T09:35:19.390Z,95887.66
2023-04-19T09:40:34.610Z,95880.73
2023-04-19T09:43:17.917Z,95880.41
2023-04-19T09:45:56.110Z,95878.25
2023-04-19T09:48:26.149Z,95876.40
2023-04-19T09:51:05.839Z,95876.10
2023-04-19T09:53:41.672Z,95876.48
2023-04-19T09:56:13.345Z,95868.63
2023-04-19T09:58:51.311Z,95871.17
2023-04-19T10:01:29.200Z,95869.64
2023-04-19T10:04:10.257Z,95869.98
2023-04-19T10:07:19.473Z,95870.78
2023-04-19T10:12:46.302Z,95860.60
2023-04-19T10:15:14.611Z,95862.07
2023-04-19T10:17:44.922Z,95859.98
2023-04-19T10:20:24.089Z,95863.36
2023-04-19T10:22:55.876Z,95860.36
2023-04-19T10:25:38.505Z,95858.70
2023-04-19T10:28:08.532Z,95861.45
2023-04-19T10:30:56.664Z,95859.38
2023-04-19T10:33:34.869Z,95855.08
2023-04-19T10:36:10.383Z,95858.11
2023-04-19T10:38:52.061Z,95855.73
2023-04-19T10:41:58.692Z,95854.97
2023-04-19T10:44:29.006Z,95851.48
2023-04-19T10:46:59.785Z,95855.20
2023-04-19T10:49:46.751Z,95852.83
2023-04-19T10:52:30.156Z,95852.36
2023-04-19T10:54:59.204Z,95854.77
2023-04-19T10:57:50.768Z,95855.16
2023-04-19T11:00:26.178Z,95856.06
2023-04-19T11:02:56.830Z,95856.39
2023-04-19T11:05:26.567Z,95855.24
2023-04-19T11:07:58.281Z,95855.88
2023-04-19T11:10:31.848Z,95855.86
2023-04-19T11:13:02.222Z,95857.32
2023-04-19T11:15:32.509Z,95857.77
2023-04-19T11:18:12.132Z,95857.35
2023-04-19T11:20:44.459Z,95860.34
2023-04-19T11:23:19.146Z,95862.41
2023-04-19T11:25:53.407Z,95863.45
2023-04-19T11:28:23.489Z,95869.96
2023-04-19T11:30:54.189Z,95869.93
2023-04-19T11:33:26.266Z,95865.53
2023-04-19T11:35:58.383Z,95866.46
2023-04-19T11:38:32.322Z,95865.25
2023-04-19T11:41:04.639Z,95870.03
2023-04-19T11:43:37.854Z,95865.95
2023-04-19T11:46:12.606Z,95869.64
2023-04-19T11:48:53.679Z,95870.20
2023-04-19T11:51:23.923Z,95870.42
2023-04-19T11:53:53.445Z,95872.98
2023-04-19T11:56:24.288Z,95874.64
2023-04-19T11:58:58.843Z,95874.20
2023-04-19T12:01:30.066Z,95881.56
2023-04-19T12:04:00.142Z,95880.84
2023-04-19T12:06:34.812Z,95888.83
2023-04-19T12:09:11.445Z,95889.34
2023-04-19T12:11:46.012Z,95893.75
2023-04-19T12:14:20.049Z,95893.38
2023-04-19T12:17:06.970Z,95895.02
2023-04-19T12:19:55.457Z,95899.45
2023-04-19T12:22:25.163Z,95896.55
2023-04-19T12:24:55.651Z,95896.23
2023-04-19T12:27:26.213Z,95897.98
2023-04-19T12:29:56.234Z,95895.34
2023-04-19T12:32:25.927Z,95898.66
2023-04-19T12:34:56.191Z,95894.59
2023-04-19T12:37:26.270Z,95894.64
2023-04-19T12:39:56.353Z,95893.70
2023-04-19T12:42:26.887Z,95892.18
2023-04-19T12:44:57.067Z,95892.94
2023-04-19T12:47:27.001Z,95895.02
2023-04-19T12:49:58.050Z,95891.02
2023-04-19T12:52:27.799Z,95896.85
2023-04-19T12:54:57.472Z,95891.89
2023-04-19T12:57:27.153Z,95893.73
2023-04-19T12:59:56.887Z,95891.98
2023-04-19T13:02:25.851Z,95891.37
2023-04-19T13:04:56.269Z,95892.71
2023-04-19T13:07:26.809Z,95891.82
2023-04-19T13:09:57.063Z,95893.87
2023-04-19T13:12:28.763Z,95893.71
2023-04-19T13:15:04.116Z,95896.14
2023-04-19T13:17:36.735Z,95894.60
2023-04-19T13:20:07.603Z,95893.30
2023-04-19T13:22:37.405Z,95895.80
2023-04-19T13:25:07.663Z,95895.89
2023-04-19T13:27:37.303Z,95897.69
2023-04-19T13:30:08.063Z,95897.55
2023-04-19T13:32:38.049Z,95898.84
2023-04-19T13:35:08.647Z,95898.52
2023-04-19T13:37:38.385Z,95899.98
2023-04-19T13:40:18.590Z,95897.35
2023-04-19T13:42:50.141Z,95893.00
2023-04-19T13:45:19.705Z,95896.74
2023-04-19T13:47:48.618Z,95893.45
2023-04-19T13:50:19.434Z,95892.23
2023-04-19T13:52:49.705Z,95892.10
2023-04-19T13:55:18.768Z,95894.92
2023-04-19T13:57:48.758Z,95889.14
2023-04-19T14:00:19.367Z,95890.14
2023-04-19T14:02:50.911Z,95890.84
2023-04-19T14:05:21.863Z,95892.80
2023-04-19T14:07:51.352Z,95889.52
2023-04-19T14:10:21.732Z,95888.44
2023-04-19T14:12:53.518Z,95887.84
2023-04-19T14:15:24.688Z,95883.53
2023-04-19T14:17:55.077Z,95886.09
2023-04-19T14:20:24.720Z,95885.40
2023-04-19T14:22:56.624Z,95883.77
2023-04-19T14:25:29.144Z,95886.48
2023-04-19T14:27:59.907Z,95882.11
2023-04-19T14:30:32.246Z,95883.33
2023-04-19T14:33:03.714Z,95881.67
2023-04-19T14:35:34.306Z,95884.11
2023-04-19T14:38:04.579Z,95888.17
2023-04-19T14:40:35.090Z,95886.52
2023-04-19T14:43:04.767Z,95887.52
2023-04-19T14:45:35.133Z,95883.75
2023-04-19T14:48:05.688Z,95887.40
2023-04-19T14:50:36.204Z,95886.98
2023-04-19T14:53:05.890Z,95888.43
2023-04-19T14:55:38.648Z,95891.73
2023-04-19T14:58:08.950Z,95890.58
2023-04-19T15:00:39.219Z,95890.58
2023-04-19T15:03:08.813Z,95886.79
2023-04-19T15:05:39.526Z,95889.23
2023-04-19T15:08:23.397Z,95887.02
2023-04-19T15:11:00.166Z,95888.66
2023-04-19T15:13:30.694Z,95890.39
2023-04-19T15:16:03.198Z,95890.27
2023-04-19T15:18:33.668Z,95893.02
2023-04-19T15:21:07.110Z,95890.66
2023-04-19T15:23:37.851Z,95895.77
2023-04-19T15:26:08.336Z,95898.98
2023-04-19T15:28:39.119Z,95898.24
2023-04-19T15:31:10.803Z,95897.59
2023-04-19T15:33:40.587Z,95895.66
2023-04-19T15:36:10.989Z,95898.84
2023-04-19T15:38:43.869Z,95901.38
2023-04-19T15:41:14.509Z,95900.86
2023-04-19T15:43:44.946Z,95905.84
2023-04-19T15:46:16.056Z,95907.30
2023-04-19T15:48:47.375Z,95905.14
2023-04-19T15:51:17.700Z,95907.42
2023-04-19T15:53:47.152Z,95906.33
2023-04-19T15:56:17.114Z,95910.66
2023-04-19T15:58:46.640Z,95909.41
2023-04-19T16:01:18.793Z,95903.77
2023-04-19T16:03:49.765Z,95901.97
2023-04-19T16:06:19.380Z,95905.79
2023-04-19T16:08:48.996Z,95902.96
2023-04-19T16:11:18.487Z,95907.16
2023-04-19T16:13:50.192Z,95903.35
2023-04-19T16:16:19.866Z,95907.23
2023-04-19T16:18:49.447Z,95907.89
2023-04-19T16:21:19.173Z,95909.59
2023-04-19T16:23:48.703Z,95910.42
2023-04-19T16:26:18.319Z,95912.52
2023-04-19T16:28:48.179Z,95910.11
2023-04-19T16:31:17.789Z,95913.70
2023-04-19T16:33:46.559Z,95909.85
2023-04-19T16:36:17.866Z,95914.59
2023-04-19T16:38:47.342Z,95915.48
2023-04-19T16:41:16.830Z,95919.42
2023-04-19T16:43:46.416Z,95917.37
2023-04-19T16:46:16.194Z,95916.10
2023-04-19T16:48:45.788Z,95919.05
2023-04-19T16:51:15.960Z,95920.16
2023-04-19T16:53:46.244Z,95923.16
2023-04-19T16:56:17.332Z,95921.09
2023-04-19T16:58:47.608Z,95922.04
2023-04-19T17:01:19.037Z,95921.31
2023-04-19T17:03:50.625Z,95925.70
2023-04-19T17:06:20.219Z,95924.17
2023-04-19T17:08:49.607Z,95925.61
2023-04-19T17:11:19.161Z,95925.66
2023-04-19T17:13:48.619Z,95925.23
2023-04-19T17:16:17.736Z,95925.16
2023-04-19T17:18:47.836Z,95928.90
2023-04-19T17:21:17.944Z,95931.67
2023-04-19T17:23:47.429Z,95932.34
2023-04-19T17:26:17.578Z,95938.33
2023-04-19T17:28:47.557Z,95941.86
2023-04-19T17:31:17.096Z,95947.16
2023-04-19T17:33:46.670Z,95949.82
2023-04-19T17:36:15.463Z,95948.39
2023-04-19T17:38:45.599Z,95951.30
2023-04-19T17:41:18.874Z,95951.84
2023-04-19T17:43:48.357Z,95956.02
2023-04-19T17:46:19.640Z,95961.52
2023-04-19T17:48:49.521Z,95964.28
2023-04-19T17:51:18.326Z,95975.79
2023-04-19T17:53:48.102Z,95976.89
2023-04-19T17:56:17.536Z,95974.66
2023-04-19T17:58:47.124Z,95978.63
2023-04-19T18:01:17.474Z,95989.79
2023-04-19T18:03:47.175Z,95993.45
2023-04-19T18:06:17.583Z,95992.70
2023-04-19T18:08:47.171Z,95995.49
2023-04-19T18:11:18.733Z,95997.45
2023-04-19T18:13:48.285Z,96001.91
2023-04-19T18:16:20.012Z,96002.67
2023-04-19T18:18:49.607Z,96005.13
2023-04-19T18:21:19.945Z,96009.02
2023-04-19T18:23:50.435Z,96015.26
2023-04-19T18:26:22.155Z,96013.13
2023-04-19T18:28:51.160Z,96015.18
2023-04-19T18:31:21.611Z,96019.42
2023-04-19T18:33:51.373Z,96017.38
2023-04-19T18:36:21.963Z,96016.00
2023-04-19T18:38:52.073Z,96019.10
2023-04-19T18:41:22.792Z,96024.26
2023-04-19T18:44:24.923Z,96024.06
2023-04-19T18:46:46.068Z,96026.70
2023-04-19T18:49:16.470Z,96030.05
2023-04-19T18:51:46.959Z,96029.17
2023-04-19T18:54:19.816Z,96029.54
2023-04-19T18:57:21.059Z,96028.81
2023-04-19T18:59:41.630Z,96030.05
2023-04-19T19:02:11.823Z,96029.60
2023-04-19T19:04:52.050Z,96028.86
2023-04-19T19:07:36.067Z,96031.11
2023-04-19T19:10:19.500Z,96029.63
2023-04-19T19:12:52.690Z,96033.62
2023-04-19T19:15:22.298Z,96027.77
2023-04-19T19:17:52.688Z,96031.20
2023-04-19T19:20:22.994Z,96025.29
2023-04-19T19:22:51.748Z,96026.06
2023-04-19T19:25:24.098Z,96024.41
2023-04-19T19:30:34.837Z,96028.41
2023-04-19T19:33:05.278Z,96026.69
2023-04-19T19:35:35.472Z,96027.93
2023-04-19T19:38:04.964Z,96028.54
2023-04-19T19:40:34.756Z,96029.20
2023-04-19T19:43:04.982Z,96029.63
2023-04-19T19:45:34.808Z,96028.51
2023-04-19T19:48:05.583Z,96033.81
2023-04-19T19:53:08.190Z,96031.70
2023-04-19T19:55:38.540Z,96030.85
2023-04-19T20:00:47.107Z,96038.10
2023-04-19T20:03:35.559Z,96039.50
2023-04-19T20:08:44.842Z,96041.02
2023-04-19T20:11:18.350Z,96039.84
2023-04-19T20:13:48.299Z,96045.46
2023-04-19T20:16:19.125Z,96041.55
2023-04-19T20:18:49.853Z,96045.79
2023-04-19T20:21:20.826Z,96043.04
2023-04-19T20:23:51.184Z,96041.18
2023-04-19T20:26:21.452Z,96041.75
2023-04-19T20:28:53.086Z,96042.52
2023-04-19T20:31:24.099Z,96041.10
2023-04-19T20:33:54.472Z,96037.44
2023-04-19T20:36:25.020Z,96034.55
2023-04-19T20:38:57.424Z,96035.27
2023-04-19T20:41:28.411Z,96041.72
2023-04-19T20:44:00.192Z,96040.04
2023-04-19T20:46:30.065Z,96042.45
2023-04-19T20:49:00.499Z,96045.77
2023-04-19T20:51:32.079Z,96043.86
2023-04-19T20:54:00.963Z,96046.41
2023-04-19T20:56:30.491Z,96050.04
2023-04-19T20:59:00.454Z,96051.65
2023-04-19T21:01:30.532Z,96048.13
2023-04-19T21:04:00.218Z,96049.84
2023-04-19T21:06:31.907Z,96048.46
2023-04-19T21:09:01.079Z,96048.17
2023-04-19T21:11:30.984Z,96052.66
2023-04-19T21:14:00.533Z,96052.73
2023-04-19T21:16:30.258Z,96052.73
2023-04-19T21:19:00.132Z,96055.88
2023-04-19T21:21:31.194Z,96055.84
2023-04-19T21:24:02.378Z,96059.79
2023-04-19T21:26:32.381Z,96058.64
2023-04-19T21:29:02.285Z,96057.21
2023-04-19T21:31:32.407Z,96053.56
2023-04-19T21:34:02.873Z,96060.42
2023-04-19T21:36:33.087Z,96059.35
2023-04-19T21:39:04.480Z,96062.23
2023-04-19T21:41:35.749Z,96058.71
2023-04-19T21:44:05.923Z,96059.02
2023-04-19T21:46:36.209Z,96056.00
2023-04-19T21:49:05.833Z,96060.39
2023-04-19T21:51:36.530Z,96059.67
2023-04-19T21:54:06.669Z,96062.41
2023-04-19T21:56:38.173Z,96062.05
2023-04-19T21:59:08.085Z,96062.57
2023-04-19T22:01:38.062Z,96064.11
2023-04-19T22:04:08.643Z,96063.96
2023-04-19T22:06:37.841Z,96067.11
2023-04-19T22:09:08.490Z,96064.89
2023-04-19T22:11:40.580Z,96063.30
2023-04-19T22:14:10.762Z,96068.08
2023-04-19T22:16:39.578Z,96065.97
2023-04-19T22:19:11.261Z,96066.28
2023-04-19T22:21:41.132Z,96068.49
2023-04-19T22:24:11.419Z,96072.81
2023-04-19T22:26:41.800Z,96072.07
2023-04-19T22:29:11.695Z,96073.62
2023-04-19T22:31:42.032Z,96080.73
2023-04-19T22:34:12.393Z,96084.36
2023-04-19T22:36:41.962Z,96084.98
2023-04-19T22:39:12.082Z,96084.92
2023-04-19T22:41:42.300Z,96085.62
2023-04-19T22:44:12.580Z,96082.44
2023-04-19T22:46:44.269Z,96082.36
2023-04-19T22:49:14.850Z,96086.50
2023-04-19T22:51:45.502Z,96089.05
2023-04-19T22:54:16.426Z,96089.42
2023-04-19T22:56:46.175Z,96090.89
2023-04-19T22:59:17.293Z,96091.17
2023-04-19T23:01:47.823Z,96090.43
2023-04-19T23:04:18.964Z,96090.58
2023-04-19T23:06:49.278Z,96089.52
2023-04-19T23:09:19.571Z,96088.44
2023-04-19T23:11:49.249Z,96087.59
2023-04-19T23:14:19.569Z,96090.27
2023-04-19T23:16:49.796Z,96088.61
2023-04-19T23:19:20.103Z,96087.00
2023-04-19T23:21:51.139Z,96090.86
2023-04-19T23:24:21.451Z,96089.53
2023-04-19T23:26:51.749Z,96090.33
2023-04-19T23:29:21.753Z,96086.09
2023-04-19T23:31:52.211Z,96085.13
2023-04-19T23:34:22.058Z,96086.21
2023-04-19T23:36:52.318Z,96081.61
2023-04-19T23:39:21.142Z,96086.76
2023-04-19T23:41:53.606Z,96085.70
2023-04-19T23:44:23.890Z,96082.69
2023-04-19T23:46:54.321Z,96081.39
2023-04-19T23:49:24.056Z,96081.18
2023-04-19T23:51:54.506Z,96080.56
2023-04-19T23:54:26.786Z,96079.65
2023-04-19T23:57:00.530Z,96079.14
2023-04-19T23:59:34.422Z,96076.73
